MV Sally Archer — WDB7650 — position and weather

sailwx.info

Track history (hours):
 
Tides and Currents Weather Stations Pressure Air Temp Water Temp Dewpoint Dewpoint Depression Visibility Wind Speed Wind Dir Waves Ship Positions

MV Sally Archer

Owner: American River Transportation Co., Saint Louis, MO. More information available from US FCC via Universal Licensing System and Coast Guard Vessel Documentation Center.

Last reported at 2017-Sep-22 02:00 UTC. Time now 2017-Sep-24 14:20 UTC.
Position N 32°11' W 090°60'.

Length 60 m; draft 3.1 m.

Type: Towing. MMSI: 366945650.

Date/timePositionNaut miles runAvg speedWind from/ knotsBaromVisibWave heightAir tempDewpointWater temp
2017-Sep-22 02:00N 32°11' W 090°60'3 6.7
2017-Sep-22 01:30N 32°15' W 090°59'3 6.6
2017-Sep-22 01:01N 32°17' W 090°56'3 5.8
2017-Sep-22 00:31N 32°19' W 090°54'2 4.5
2017-Sep-22 00:00N 32°21' W 090°56'3 6.1
2017-Sep-21 23:31N 32°21' W 090°60'3 5.5
2017-Sep-21 23:00N 32°24' W 090°59'3 5.5
2017-Sep-21 22:30N 32°26' W 091°02'3 5.9
2017-Sep-21 22:01N 32°27' W 091°05'3 6.2
2017-Sep-21 21:31N 32°29' W 091°07'3 6.9
2017-Sep-21 21:00N 32°33' W 091°06'3 6.4
2017-Sep-21 20:30N 32°35' W 091°08'4 6.3
2017-Sep-21 19:50N 32°40' W 091°09'  
2017-Sep-16 03:41N 32°47' W 091°10'1 4.2
2017-Sep-16 03:28N 32°46' W 091°10'6 1.6
2017-Sep-15 23:30N 32°40' W 091°08'2 3.3
2017-Sep-15 22:50N 32°38' W 091°09'1 3.6
2017-Sep-15 22:30N 32°37' W 091°09'2 4.1
2017-Sep-15 22:00N 32°35' W 091°08'2 4.3
2017-Sep-15 21:30N 32°34' W 091°06'2 3.8
2017-Sep-15 21:00N 32°32' W 091°06'2 4.9
2017-Sep-15 20:30N 32°30' W 091°07'2 4.6
2017-Sep-15 20:00N 32°28' W 091°06'2 4.6
2017-Sep-15 19:30N 32°26' W 091°04'2 4.3
2017-Sep-15 19:00N 32°26' W 091°01'2 3.7
2017-Sep-15 18:30N 32°25' W 090°59'2 3.9
2017-Sep-15 18:00N 32°23' W 091°00'2 3.7
2017-Sep-15 17:30N 32°21' W 090°59'2 4.5
2017-Sep-15 17:00N 32°21' W 090°56'0 0.0
2017-Sep-15 16:28N 32°21' W 090°56'0 0.0
2017-Sep-15 15:58N 32°21' W 090°56'0 0.0
2017-Sep-15 15:28N 32°21' W 090°56'0 0.0
2017-Sep-15 14:58N 32°21' W 090°56'0 0.2
2017-Sep-15 14:30N 32°21' W 090°56'2 4.2
2017-Sep-15 14:00N 32°20' W 090°54'2 3.7
2017-Sep-15 13:30N 32°18' W 090°55'2 4.6
2017-Sep-15 13:00N 32°17' W 090°57'2 3.9
2017-Sep-15 12:30N 32°15' W 090°58'2 4.2
2017-Sep-15 12:00N 32°13' W 090°59'2 4.5
2017-Sep-15 11:30N 32°11' W 090°60'2 4.3
2017-Sep-15 11:00N 32°09' W 091°00'2 4.0
2017-Sep-15 10:30N 32°07' W 091°01'2 3.6
2017-Sep-15 10:00N 32°08' W 091°03'2 4.4
2017-Sep-15 09:30N 32°08' W 091°06'2 3.3
2017-Sep-15 08:59N 32°06' W 091°06'3 4.5
2017-Sep-15 08:22N 32°04' W 091°04'1 3.6
2017-Sep-15 08:00N 32°03' W 091°03'3 5.1
2017-Sep-15 07:30N 32°01' W 091°05'2 4.2
2017-Sep-15 07:00N 31°59' W 091°07'3 4.2
2017-Sep-15 06:23N 31°59' W 091°10'2 4.2
2017-Sep-15 06:00N 31°58' W 091°11'  
Track history (hours):
 
Tides and Currents Weather Stations Pressure Air Temp Water Temp Dewpoint Dewpoint Depression Visibility Wind Speed Wind Dir Waves Ship Positions

MV Sally Archer

Owner: American River Transportation Co., Saint Louis, MO. More information available from US FCC via Universal Licensing System and Coast Guard Vessel Documentation Center.

Last reported at 2017-Sep-22 02:00 UTC. Time now 2017-Sep-24 14:20 UTC.
Position N 32°11' W 090°60'.

Length 60 m; draft 3.1 m.

Type: Towing. MMSI: 366945650.

Date/timePositionNaut miles runAvg speedWind from/ knotsBaromVisibWave heightAir tempDewpointWater temp
2017-Sep-22 02:00N 32°11' W 090°60'3 6.7
2017-Sep-22 01:30N 32°15' W 090°59'3 6.6
2017-Sep-22 01:01N 32°17' W 090°56'3 5.8
2017-Sep-22 00:31N 32°19' W 090°54'2 4.5
2017-Sep-22 00:00N 32°21' W 090°56'3 6.1
2017-Sep-21 23:31N 32°21' W 090°60'3 5.5
2017-Sep-21 23:00N 32°24' W 090°59'3 5.5
2017-Sep-21 22:30N 32°26' W 091°02'3 5.9
2017-Sep-21 22:01N 32°27' W 091°05'3 6.2
2017-Sep-21 21:31N 32°29' W 091°07'3 6.9
2017-Sep-21 21:00N 32°33' W 091°06'3 6.4
2017-Sep-21 20:30N 32°35' W 091°08'4 6.3
2017-Sep-21 19:50N 32°40' W 091°09'  
2017-Sep-16 03:41N 32°47' W 091°10'1 4.2
2017-Sep-16 03:28N 32°46' W 091°10'6 1.6
2017-Sep-15 23:30N 32°40' W 091°08'2 3.3
2017-Sep-15 22:50N 32°38' W 091°09'1 3.6
2017-Sep-15 22:30N 32°37' W 091°09'2 4.1
2017-Sep-15 22:00N 32°35' W 091°08'2 4.3
2017-Sep-15 21:30N 32°34' W 091°06'2 3.8
2017-Sep-15 21:00N 32°32' W 091°06'2 4.9
2017-Sep-15 20:30N 32°30' W 091°07'2 4.6
2017-Sep-15 20:00N 32°28' W 091°06'2 4.6
2017-Sep-15 19:30N 32°26' W 091°04'2 4.3
2017-Sep-15 19:00N 32°26' W 091°01'2 3.7
2017-Sep-15 18:30N 32°25' W 090°59'2 3.9
2017-Sep-15 18:00N 32°23' W 091°00'2 3.7
2017-Sep-15 17:30N 32°21' W 090°59'2 4.5
2017-Sep-15 17:00N 32°21' W 090°56'0 0.0
2017-Sep-15 16:28N 32°21' W 090°56'0 0.0
2017-Sep-15 15:58N 32°21' W 090°56'0 0.0
2017-Sep-15 15:28N 32°21' W 090°56'0 0.0
2017-Sep-15 14:58N 32°21' W 090°56'0 0.2
2017-Sep-15 14:30N 32°21' W 090°56'2 4.2
2017-Sep-15 14:00N 32°20' W 090°54'2 3.7
2017-Sep-15 13:30N 32°18' W 090°55'2 4.6
2017-Sep-15 13:00N 32°17' W 090°57'2 3.9
2017-Sep-15 12:30N 32°15' W 090°58'2 4.2
2017-Sep-15 12:00N 32°13' W 090°59'2 4.5
2017-Sep-15 11:30N 32°11' W 090°60'2 4.3
2017-Sep-15 11:00N 32°09' W 091°00'2 4.0
2017-Sep-15 10:30N 32°07' W 091°01'2 3.6
2017-Sep-15 10:00N 32°08' W 091°03'2 4.4
2017-Sep-15 09:30N 32°08' W 091°06'2 3.3
2017-Sep-15 08:59N 32°06' W 091°06'3 4.5
2017-Sep-15 08:22N 32°04' W 091°04'1 3.6
2017-Sep-15 08:00N 32°03' W 091°03'3 5.1
2017-Sep-15 07:30N 32°01' W 091°05'2 4.2
2017-Sep-15 07:00N 31°59' W 091°07'3 4.2
2017-Sep-15 06:23N 31°59' W 091°10'2 4.2
2017-Sep-15 06:00N 31°58' W 091°11'  

Dump ship's entire track history